createdAt,value
2022-11-19T00:01:33.916Z,98066.16
2022-11-19T00:04:02.595Z,98079.03
2022-11-19T00:06:31.706Z,98086.94
2022-11-19T00:08:59.079Z,98099.19
2022-11-19T00:11:47.456Z,98089.41
2022-11-19T00:14:16.297Z,98108.41
2022-11-19T00:16:47.699Z,98101.72
2022-11-19T00:19:14.825Z,98103.13
2022-11-19T00:21:42.680Z,98100.47
2022-11-19T00:24:11.297Z,98104.78
2022-11-19T00:26:38.952Z,98107.56
2022-11-19T00:29:06.009Z,98110.69
2022-11-19T00:31:33.488Z,98110.69
2022-11-19T00:34:01.337Z,98120.94
2022-11-19T00:36:28.764Z,98122.63
2022-11-19T00:38:56.594Z,98128.94
2022-11-19T00:41:23.863Z,98134.56
2022-11-19T00:43:51.134Z,98125.75
2022-11-19T00:46:23.999Z,98148.84
2022-11-19T00:48:52.986Z,98134.41
2022-11-19T00:51:22.207Z,98153.47
2022-11-19T00:53:49.533Z,98153.47
2022-11-19T00:56:20.986Z,98149.41
2022-11-19T00:58:48.536Z,98148.69
2022-11-19T01:01:18.115Z,98144.69
2022-11-19T01:03:46.220Z,98158.53
2022-11-19T01:06:18.646Z,98152.06
2022-11-19T01:08:48.019Z,98152.72
2022-11-19T01:11:18.340Z,98167.66
2022-11-19T01:13:47.703Z,98167.13
2022-11-19T01:16:21.430Z,98174.19
2022-11-19T01:18:51.448Z,98182.97
2022-11-19T01:21:23.089Z,98193.59
2022-11-19T01:23:51.062Z,98186.78
2022-11-19T01:26:19.381Z,98200.59
2022-11-19T01:28:47.119Z,98205.34
2022-11-19T01:31:16.884Z,98192.09
2022-11-19T01:33:45.202Z,98198.50
2022-11-19T01:36:23.585Z,98209.13
2022-11-19T01:38:55.301Z,98207.16
2022-11-19T01:41:28.289Z,98210.34
2022-11-19T01:44:01.620Z,98219.00
2022-11-19T01:46:32.935Z,98219.66
2022-11-19T01:49:10.894Z,98223.53
2022-11-19T01:51:43.912Z,98238.16
2022-11-19T01:54:18.918Z,98242.34
2022-11-19T01:56:47.012Z,98259.91
2022-11-19T01:59:19.471Z,98267.69
2022-11-19T02:01:50.933Z,98267.47
2022-11-19T02:04:20.933Z,98256.78
2022-11-19T02:06:48.505Z,98266.31
2022-11-19T02:09:16.144Z,98277.44
2022-11-19T02:12:07.898Z,98286.09
2022-11-19T02:14:42.393Z,98282.97
2022-11-19T02:17:27.668Z,98286.47
2022-11-19T02:20:27.318Z,98295.63
2022-11-19T02:23:32.415Z,98311.88
2022-11-19T02:26:39.009Z,98313.31
2022-11-19T02:29:30.354Z,98329.97
2022-11-19T02:32:02.092Z,98336.69
2022-11-19T02:35:02.405Z,98334.13
2022-11-19T02:37:51.261Z,98326.69
2022-11-19T02:40:28.524Z,98341.06
2022-11-19T02:43:20.003Z,98343.03
2022-11-19T02:45:54.835Z,98335.03
2022-11-19T02:48:34.986Z,98353.50
2022-11-19T02:51:05.037Z,98339.13
2022-11-19T02:53:33.538Z,98350.28
2022-11-19T02:56:13.259Z,98363.66
2022-11-19T02:59:11.646Z,98341.53
2022-11-19T03:02:02.926Z,98366.78
2022-11-19T03:04:31.041Z,98384.69
2022-11-19T03:07:04.587Z,98392.28
2022-11-19T03:09:33.785Z,98392.63
2022-11-19T03:12:21.421Z,98405.38
2022-11-19T03:15:16.108Z,98404.50
2022-11-19T03:18:11.136Z,98421.97
2022-11-19T03:20:46.597Z,98399.41
2022-11-19T03:23:30.399Z,98415.63
2022-11-19T03:26:04.156Z,98433.03
2022-11-19T03:28:38.549Z,98429.81
2022-11-19T03:31:07.465Z,98430.44
2022-11-19T03:33:43.518Z,98430.97
2022-11-19T03:36:24.269Z,98427.75
2022-11-19T03:38:56.291Z,98437.91
2022-11-19T03:41:25.734Z,98438.38
2022-11-19T03:43:58.799Z,98448.25
2022-11-19T03:46:29.180Z,98433.56
2022-11-19T03:48:58.973Z,98429.75
2022-11-19T03:51:48.326Z,98442.75
2022-11-19T03:54:15.802Z,98455.13
2022-11-19T03:56:45.565Z,98464.13
2022-11-19T03:59:13.589Z,98474.81
2022-11-19T04:01:41.573Z,98464.75
2022-11-19T04:04:27.442Z,98490.44
2022-11-19T04:06:56.915Z,98492.38
2022-11-19T04:09:24.729Z,98502.72
2022-11-19T04:14:17.853Z,98533.47
2022-11-19T04:16:45.159Z,98531.97
2022-11-19T04:19:15.349Z,98532.75
2022-11-19T04:21:42.623Z,98538.25
2022-11-19T04:24:10.720Z,98536.22
2022-11-19T04:26:37.852Z,98532.91
2022-11-19T04:29:08.228Z,98532.91
2022-11-19T04:31:36.590Z,98543.06
2022-11-19T04:34:05.166Z,98544.94
2022-11-19T04:36:32.540Z,98538.50
2022-11-19T04:39:01.281Z,98536.75
2022-11-19T04:41:29.320Z,98560.34
2022-11-19T04:43:56.499Z,98575.78
2022-11-19T04:46:23.767Z,98587.75
2022-11-19T04:48:51.737Z,98582.69
2022-11-19T04:51:19.079Z,98572.13
2022-11-19T04:53:46.337Z,98581.06
2022-11-19T04:56:13.480Z,98585.00
2022-11-19T04:58:43.884Z,98581.78
2022-11-19T05:01:13.013Z,98582.56
2022-11-19T05:03:41.649Z,98587.78
2022-11-19T05:06:09.553Z,98596.88
2022-11-19T05:08:38.138Z,98605.16
2022-11-19T05:11:06.079Z,98614.47
2022-11-19T05:13:34.377Z,98612.63
2022-11-19T05:16:02.749Z,98625.97
2022-11-19T05:18:30.605Z,98621.94
2022-11-19T05:20:58.518Z,98628.38
2022-11-19T05:23:28.801Z,98644.94
2022-11-19T05:26:00.941Z,98625.06
2022-11-19T05:28:39.190Z,98633.09
2022-11-19T05:31:08.714Z,98627.47
2022-11-19T05:33:36.798Z,98637.72
2022-11-19T05:36:05.269Z,98651.28
2022-11-19T05:38:33.236Z,98659.78
2022-11-19T05:41:00.265Z,98673.47
2022-11-19T05:43:28.495Z,98685.69
2022-11-19T05:46:04.614Z,98687.16
2022-11-19T05:48:31.986Z,98687.97
2022-11-19T05:50:59.755Z,98695.81
2022-11-19T05:53:27.350Z,98703.84
2022-11-19T05:55:55.105Z,98711.78
2022-11-19T05:58:25.431Z,98720.31
2022-11-19T06:00:57.233Z,98731.34
2022-11-19T06:03:24.623Z,98730.91
2022-11-19T06:05:55.317Z,98731.34
2022-11-19T06:08:23.515Z,98729.75
2022-11-19T06:10:51.461Z,98736.19
2022-11-19T06:13:19.883Z,98732.28
2022-11-19T06:15:47.664Z,98754.13
2022-11-19T06:18:15.413Z,98759.44
2022-11-19T06:20:43.129Z,98748.38
2022-11-19T06:23:10.445Z,98760.13
2022-11-19T06:25:38.582Z,98770.75
2022-11-19T06:28:09.105Z,98776.03
2022-11-19T06:30:36.928Z,98761.53
2022-11-19T06:33:06.981Z,98783.13
2022-11-19T06:35:35.254Z,98779.22
2022-11-19T06:38:03.193Z,98792.13
2022-11-19T06:40:30.552Z,98806.03
2022-11-19T06:42:58.469Z,98802.81
2022-11-19T06:45:26.235Z,98814.91
2022-11-19T06:47:53.981Z,98824.59
2022-11-19T06:50:22.159Z,98838.41
2022-11-19T06:52:49.811Z,98844.97
2022-11-19T06:55:18.146Z,98847.38
2022-11-19T06:57:45.408Z,98863.50
2022-11-19T07:00:14.572Z,98861.41
2022-11-19T07:02:42.102Z,98861.88
2022-11-19T07:05:19.076Z,98878.44
2022-11-19T07:07:46.362Z,98873.44
2022-11-19T07:10:14.190Z,98877.94
2022-11-19T07:12:44.149Z,98880.25
2022-11-19T07:15:12.199Z,98880.47
2022-11-19T07:17:40.753Z,98879.97
2022-11-19T07:20:08.962Z,98876.66
2022-11-19T07:22:36.799Z,98896.13
2022-11-19T07:25:04.385Z,98898.44
2022-11-19T07:27:32.376Z,98895.88
2022-11-19T07:29:59.548Z,98896.00
2022-11-19T07:32:27.374Z,98894.38
2022-11-19T07:34:55.013Z,98885.50
2022-11-19T07:37:22.499Z,98898.66
2022-11-19T07:39:53.933Z,98918.97
2022-11-19T07:42:42.925Z,98901.56
2022-11-19T07:45:10.360Z,98904.88
2022-11-19T07:47:38.372Z,98912.94
2022-11-19T07:50:06.214Z,98915.25
2022-11-19T07:52:33.948Z,98910.47
2022-11-19T07:55:05.011Z,98909.06
2022-11-19T07:57:34.809Z,98903.28
2022-11-19T08:00:03.226Z,98920.22
2022-11-19T08:02:40.088Z,98918.16
2022-11-19T08:05:08.089Z,98925.13
2022-11-19T08:07:38.321Z,98929.41
2022-11-19T08:10:07.346Z,98930.91
2022-11-19T08:12:35.491Z,98938.50
2022-11-19T08:15:05.664Z,98938.69
2022-11-19T08:17:51.927Z,98937.53
2022-11-19T08:20:19.841Z,98933.59
2022-11-19T08:22:47.417Z,98932.97
2022-11-19T08:25:15.016Z,98932.91
2022-11-19T08:27:42.161Z,98944.84
2022-11-19T08:30:10.147Z,98957.03
2022-11-19T08:32:37.896Z,98945.25
2022-11-19T08:35:06.462Z,98947.47
2022-11-19T08:37:33.814Z,98955.09
2022-11-19T08:40:06.838Z,98969.94
2022-11-19T08:42:55.299Z,98961.88
2022-11-19T08:45:25.156Z,98968.78
2022-11-19T08:47:53.191Z,98951.34
2022-11-19T08:50:21.352Z,98959.75
2022-11-19T08:53:00.494Z,98960.31
2022-11-19T08:55:33.163Z,98963.44
2022-11-19T08:58:08.089Z,98960.97
2022-11-19T09:00:37.935Z,98907.22
2022-11-19T09:03:05.447Z,98968.22
2022-11-19T09:05:33.198Z,98958.81
2022-11-19T09:08:00.313Z,98960.50
2022-11-19T09:10:28.249Z,98949.44
2022-11-19T09:12:55.923Z,98969.41
2022-11-19T09:15:26.842Z,98971.63
2022-11-19T09:17:56.772Z,98964.94
2022-11-19T09:20:23.945Z,98970.66
2022-11-19T09:22:52.097Z,98963.88
2022-11-19T09:25:19.379Z,98977.22
2022-11-19T09:27:49.434Z,98972.19
2022-11-19T09:30:17.319Z,98975.50
2022-11-19T09:32:45.424Z,98974.00
2022-11-19T09:35:15.633Z,98964.16
2022-11-19T09:37:43.551Z,98962.97
2022-11-19T09:40:21.899Z,98962.72
2022-11-19T09:43:15.892Z,98960.56
2022-11-19T09:45:43.132Z,98956.34
2022-11-19T09:48:10.171Z,98957.59
2022-11-19T09:51:04.362Z,98951.66
2022-11-19T09:53:44.350Z,98960.34
2022-11-19T09:56:18.693Z,98960.16
2022-11-19T09:58:46.630Z,98967.41
2022-11-19T10:01:22.917Z,98958.34
2022-11-19T10:03:53.950Z,98971.53
2022-11-19T10:07:11.452Z,98974.56
2022-11-19T10:10:12.347Z,98972.78
2022-11-19T10:13:11.879Z,98979.56
2022-11-19T10:16:18.665Z,98980.31
2022-11-19T10:19:28.540Z,98981.56
2022-11-19T10:22:30.140Z,98986.94
2022-11-19T10:25:26.114Z,98980.84
2022-11-19T10:28:04.289Z,98973.50
2022-11-19T10:30:32.219Z,98965.63
2022-11-19T10:33:12.446Z,98977.63
2022-11-19T10:35:48.568Z,98971.63
2022-11-19T10:38:37.944Z,98958.31
2022-11-19T10:42:07.831Z,98963.72
2022-11-19T10:44:53.054Z,98961.81
2022-11-19T10:47:59.052Z,98955.16
2022-11-19T10:50:27.273Z,98960.56
2022-11-19T10:53:07.482Z,98971.91
2022-11-19T10:55:57.715Z,98968.41
2022-11-19T10:58:35.555Z,98967.41
2022-11-19T11:01:05.997Z,98972.09
2022-11-19T11:03:49.708Z,98968.66
2022-11-19T11:06:17.228Z,98968.19
2022-11-19T11:08:54.070Z,98963.13
2022-11-19T11:11:58.340Z,98949.34
2022-11-19T11:14:47.616Z,98941.72
2022-11-19T11:17:25.480Z,98941.44
2022-11-19T11:20:03.892Z,98941.28
2022-11-19T11:22:32.277Z,98954.28
2022-11-19T11:25:07.210Z,98952.25
2022-11-19T11:27:36.077Z,98947.34
2022-11-19T11:30:13.157Z,98953.28
2022-11-19T11:32:42.239Z,98955.34
2022-11-19T11:35:29.504Z,98949.75
2022-11-19T11:37:57.455Z,98944.75
2022-11-19T11:40:26.195Z,98953.13
2022-11-19T11:42:54.535Z,98945.34
2022-11-19T11:45:35.092Z,98949.94
2022-11-19T11:48:09.309Z,98947.06
2022-11-19T11:50:37.457Z,98950.00
2022-11-19T11:53:15.293Z,98948.59
2022-11-19T11:55:42.545Z,98944.47
2022-11-19T11:58:34.952Z,98939.03
2022-11-19T12:01:16.068Z,98935.31
2022-11-19T12:04:01.185Z,98941.56
2022-11-19T12:06:48.259Z,98935.19
2022-11-19T12:09:21.558Z,98917.31
2022-11-19T12:11:58.796Z,98921.69
2022-11-19T12:14:50.962Z,98918.56
2022-11-19T12:17:21.491Z,98927.81
2022-11-19T12:20:03.919Z,98926.16
2022-11-19T12:22:57.996Z,98942.78
2022-11-19T12:25:47.903Z,98947.84
2022-11-19T12:28:21.287Z,98956.59
2022-11-19T12:31:11.672Z,98954.91
2022-11-19T12:33:58.251Z,98954.44
2022-11-19T12:36:45.337Z,98951.50
2022-11-19T12:39:40.764Z,98958.66
2022-11-19T12:42:14.321Z,98969.69
2022-11-19T12:44:59.898Z,98963.19
2022-11-19T12:47:27.081Z,98963.19
2022-11-19T12:50:23.686Z,98974.91
2022-11-19T12:53:23.264Z,98951.63
2022-11-19T12:56:03.826Z,98963.69
2022-11-19T12:58:39.544Z,98964.88
2022-11-19T13:01:17.578Z,98968.59
2022-11-19T13:03:59.962Z,98975.75
2022-11-19T13:06:37.170Z,98971.00
2022-11-19T13:09:13.564Z,98985.34
2022-11-19T13:11:49.694Z,98994.06
2022-11-19T13:14:30.609Z,98995.75
2022-11-19T13:17:00.581Z,98983.47
2022-11-19T13:19:37.008Z,98984.81
2022-11-19T13:22:12.751Z,98981.56
2022-11-19T13:25:04.021Z,98990.25
2022-11-19T13:27:32.304Z,99001.84
2022-11-19T13:30:07.030Z,98995.91
2022-11-19T13:33:03.300Z,98989.16
2022-11-19T13:36:09.391Z,98962.13
2022-11-19T13:39:12.726Z,98969.59
2022-11-19T13:42:14.032Z,98980.72
2022-11-19T13:44:41.933Z,98985.09
2022-11-19T13:47:42.363Z,98990.59
2022-11-19T13:50:18.863Z,98990.81
2022-11-19T13:53:04.186Z,98983.94
2022-11-19T13:55:35.662Z,98975.78
2022-11-19T13:58:16.389Z,98981.19
2022-11-19T14:01:08.075Z,98946.88
2022-11-19T14:03:44.279Z,98985.72
2022-11-19T14:06:32.180Z,98987.91
2022-11-19T14:09:38.320Z,98983.34
2022-11-19T14:12:12.209Z,98966.50
2022-11-19T14:14:58.283Z,98971.19
2022-11-19T14:17:46.538Z,98977.47
2022-11-19T14:20:52.629Z,98972.56
2022-11-19T14:23:56.884Z,98969.59
2022-11-19T14:26:53.751Z,98960.91
2022-11-19T14:29:27.046Z,98974.66
2022-11-19T14:32:00.910Z,98971.38
2022-11-19T14:34:31.422Z,98982.38
2022-11-19T14:37:03.396Z,98981.50
2022-11-19T14:39:40.238Z,98979.78
2022-11-19T14:42:20.419Z,98976.03
2022-11-19T14:45:06.029Z,98984.56
2022-11-19T14:47:39.259Z,98990.38
2022-11-19T14:50:27.852Z,98996.53
2022-11-19T14:52:58.422Z,98999.84
2022-11-19T14:55:31.651Z,99002.09
2022-11-19T14:58:05.582Z,98990.19
2022-11-19T15:00:39.262Z,98988.59
2022-11-19T15:03:15.948Z,98992.59
2022-11-19T15:05:45.024Z,98994.75
2022-11-19T15:08:18.642Z,99004.16
2022-11-19T15:11:03.213Z,98983.56
2022-11-19T15:13:36.199Z,98983.84
2022-11-19T15:16:10.779Z,98999.22
2022-11-19T15:18:41.028Z,99025.34
2022-11-19T15:21:45.548Z,99021.06
2022-11-19T15:24:24.583Z,98998.97
2022-11-19T15:27:07.595Z,99004.41
2022-11-19T15:29:53.035Z,99008.25
2022-11-19T15:32:45.175Z,99004.94
2022-11-19T15:35:18.471Z,99006.56
2022-11-19T15:37:59.707Z,99000.38
2022-11-19T15:40:30.299Z,99003.50
2022-11-19T15:43:08.913Z,98991.16
2022-11-19T15:45:52.484Z,98992.06
2022-11-19T15:48:37.839Z,98996.78
2022-11-19T15:51:07.981Z,99006.91
2022-11-19T15:53:35.929Z,99000.81
2022-11-19T15:56:07.826Z,99033.00
2022-11-19T15:58:47.322Z,99016.19
2022-11-19T16:01:17.470Z,99002.13
2022-11-19T16:03:45.530Z,99009.47
2022-11-19T16:06:25.714Z,99007.41
2022-11-19T16:09:05.033Z,99001.06
2022-11-19T16:11:56.234Z,98998.66
2022-11-19T16:14:48.227Z,99010.53
2022-11-19T16:17:32.948Z,98961.81
2022-11-19T16:20:11.253Z,98996.94
2022-11-19T16:22:43.573Z,98992.91
2022-11-19T16:25:24.889Z,98984.84
2022-11-19T16:27:57.210Z,98993.50
2022-11-19T16:30:30.209Z,98993.88
2022-11-19T16:33:01.522Z,98993.50
2022-11-19T16:35:34.204Z,98995.03
2022-11-19T16:38:02.198Z,98990.53
2022-11-19T16:40:49.843Z,99002.00
2022-11-19T16:43:19.182Z,99006.38
2022-11-19T16:45:47.105Z,98999.56
2022-11-19T16:48:52.602Z,99016.78
2022-11-19T16:51:53.394Z,99037.25
2022-11-19T16:54:42.710Z,99032.16
2022-11-19T16:57:12.883Z,99028.13
2022-11-19T16:59:52.254Z,99037.72
2022-11-19T17:02:23.002Z,99022.59
2022-11-19T17:04:54.192Z,99029.88
2022-11-19T17:07:33.014Z,99034.84
2022-11-19T17:10:29.386Z,99042.00
2022-11-19T17:13:02.853Z,99034.03
2022-11-19T17:15:34.971Z,99036.00
2022-11-19T17:18:34.778Z,99024.81
2022-11-19T17:21:21.184Z,98997.69
2022-11-19T17:23:50.888Z,98987.66
2022-11-19T17:26:27.488Z,98994.38
2022-11-19T17:29:22.912Z,98997.84
2022-11-19T17:31:59.486Z,98979.53
2022-11-19T17:34:26.571Z,98977.41
2022-11-19T17:36:53.784Z,98973.72
2022-11-19T17:39:25.255Z,98980.34
2022-11-19T17:42:14.159Z,98987.63
2022-11-19T17:44:43.004Z,98980.94
2022-11-19T17:47:23.803Z,98992.38
2022-11-19T17:49:52.987Z,98995.16
2022-11-19T17:52:28.805Z,98997.59
2022-11-19T17:54:59.137Z,98986.88
2022-11-19T17:57:26.552Z,98990.00
2022-11-19T17:59:53.827Z,99004.41
2022-11-19T18:02:21.935Z,98996.44
2022-11-19T18:04:49.977Z,98995.19
2022-11-19T18:07:21.584Z,98999.22
2022-11-19T18:09:48.787Z,98997.50
2022-11-19T18:12:18.798Z,99002.44
2022-11-19T18:14:47.100Z,98987.13
2022-11-19T18:17:15.931Z,98982.84
2022-11-19T18:19:44.970Z,98992.75
2022-11-19T18:22:20.249Z,98982.84
2022-11-19T18:24:49.052Z,98975.59
2022-11-19T18:27:17.561Z,98964.72
2022-11-19T18:29:45.649Z,98975.78
2022-11-19T18:32:16.373Z,98966.22
2022-11-19T18:34:44.949Z,98964.84
2022-11-19T18:37:13.475Z,98970.41
2022-11-19T18:39:40.708Z,98957.47
2022-11-19T18:42:14.962Z,98958.75
2022-11-19T18:44:43.607Z,98946.75
2022-11-19T18:47:15.531Z,98960.13
2022-11-19T18:49:43.042Z,98971.91
2022-11-19T18:52:25.037Z,98957.06
2022-11-19T18:54:52.584Z,98962.25
2022-11-19T18:57:19.864Z,98966.25
2022-11-19T18:59:46.953Z,98978.84
2022-11-19T19:02:14.308Z,98953.16
2022-11-19T19:04:42.841Z,98956.25
2022-11-19T19:07:10.439Z,98946.94
2022-11-19T19:09:37.674Z,98949.13
2022-11-19T19:12:17.904Z,98948.75
2022-11-19T19:14:47.519Z,98954.53
2022-11-19T19:17:16.116Z,98958.69
2022-11-19T19:19:47.337Z,98958.09
2022-11-19T19:22:16.393Z,98957.75
2022-11-19T19:24:43.578Z,98966.28
2022-11-19T19:27:12.075Z,98972.25
2022-11-19T19:29:40.048Z,98981.00
2022-11-19T19:32:09.137Z,98965.91
2022-11-19T19:34:37.165Z,98973.88
2022-11-19T19:37:05.439Z,98962.22
2022-11-19T19:39:32.578Z,98967.41
2022-11-19T19:42:00.864Z,98971.78
2022-11-19T19:44:28.571Z,98953.00
2022-11-19T19:46:55.822Z,98950.81
2022-11-19T19:49:24.418Z,98956.47
2022-11-19T19:51:53.334Z,98945.19
2022-11-19T19:54:22.429Z,98927.44
2022-11-19T19:56:53.876Z,98928.72
2022-11-19T19:59:21.877Z,98933.53
2022-11-19T20:01:50.880Z,98938.00
2022-11-19T20:04:24.370Z,98949.63
2022-11-19T20:06:55.156Z,98951.16
2022-11-19T20:09:23.724Z,98955.75
2022-11-19T20:11:51.841Z,98953.31
2022-11-19T20:14:19.070Z,98963.69
2022-11-19T20:16:47.126Z,98958.97
2022-11-19T20:19:15.324Z,98951.25
2022-11-19T20:21:43.280Z,98948.69
2022-11-19T20:24:13.619Z,98946.50
2022-11-19T20:26:46.047Z,98953.47
2022-11-19T20:29:14.328Z,98959.69
2022-11-19T20:31:49.102Z,98941.25
2022-11-19T20:34:16.924Z,98938.94
2022-11-19T20:36:45.136Z,98935.94
2022-11-19T20:39:13.320Z,98919.91
2022-11-19T20:41:58.786Z,98923.47
2022-11-19T20:44:26.644Z,98919.19
2022-11-19T20:47:03.490Z,98913.53
2022-11-19T20:49:36.749Z,98915.69
2022-11-19T20:52:04.545Z,98916.50
2022-11-19T20:54:33.006Z,98909.25
2022-11-19T20:57:00.991Z,98895.31
2022-11-19T20:59:29.311Z,98896.44
2022-11-19T21:01:57.466Z,98877.38
2022-11-19T21:04:27.487Z,98865.88
2022-11-19T21:06:54.985Z,98873.34
2022-11-19T21:09:24.064Z,98859.88
2022-11-19T21:11:52.404Z,98862.16
2022-11-19T21:14:19.750Z,98862.16
2022-11-19T21:16:47.306Z,98842.59
2022-11-19T21:19:14.523Z,98842.59
2022-11-19T21:21:42.656Z,98841.19
2022-11-19T21:24:10.871Z,98828.53
2022-11-19T21:26:38.544Z,98835.88
2022-11-19T21:29:07.310Z,98834.88
2022-11-19T21:31:45.260Z,98829.09
2022-11-19T21:34:19.334Z,98820.47
2022-11-19T21:36:49.807Z,98821.16
2022-11-19T21:39:19.195Z,98810.59
2022-11-19T21:41:46.781Z,98812.41
2022-11-19T21:44:21.550Z,98806.09
2022-11-19T21:46:54.437Z,98795.84
2022-11-19T21:49:22.903Z,98778.56
2022-11-19T21:51:52.092Z,98783.41
2022-11-19T21:54:24.940Z,98779.72
2022-11-19T21:56:57.352Z,98776.75
2022-11-19T21:59:24.655Z,98770.56
2022-11-19T22:01:54.683Z,98784.81
2022-11-19T22:04:21.854Z,98768.69
2022-11-19T22:06:49.106Z,98756.59
2022-11-19T22:09:16.153Z,98760.56
2022-11-19T22:11:45.045Z,98765.41
2022-11-19T22:14:12.686Z,98766.75
2022-11-19T22:16:42.228Z,98765.47
2022-11-19T22:19:12.144Z,98751.00
2022-11-19T22:21:40.563Z,98765.00
2022-11-19T22:24:12.821Z,98756.75
2022-11-19T22:26:40.057Z,98748.47
2022-11-19T22:29:07.181Z,98746.41
2022-11-19T22:31:34.310Z,98746.97
2022-11-19T22:34:01.392Z,98758.78
2022-11-19T22:36:31.556Z,98758.47
2022-11-19T22:38:59.827Z,98752.34
2022-11-19T22:41:27.193Z,98750.41
2022-11-19T22:43:54.407Z,98752.34
2022-11-19T22:46:22.191Z,98743.44
2022-11-19T22:48:49.544Z,98730.53
2022-11-19T22:51:23.701Z,98744.91
2022-11-19T22:53:52.820Z,98716.16
2022-11-19T22:56:23.049Z,98729.59
2022-11-19T22:58:50.754Z,98739.34
2022-11-19T23:01:24.250Z,98726.91
2022-11-19T23:03:52.795Z,98730.94
2022-11-19T23:06:20.602Z,98736.44
2022-11-19T23:08:48.820Z,98725.16
2022-11-19T23:11:38.278Z,98723.13
2022-11-19T23:14:11.652Z,98710.56
2022-11-19T23:16:39.674Z,98715.81
2022-11-19T23:19:07.873Z,98705.81
2022-11-19T23:21:35.176Z,98718.56
2022-11-19T23:24:02.999Z,98694.44
2022-11-19T23:26:32.023Z,98717.09
2022-11-19T23:28:59.779Z,98713.41
2022-11-19T23:31:35.609Z,98716.97
2022-11-19T23:34:02.829Z,98715.34
2022-11-19T23:36:36.508Z,98723.41
2022-11-19T23:39:05.524Z,98726.31
2022-11-19T23:41:33.914Z,98705.06
2022-11-19T23:44:01.972Z,98711.72
2022-11-19T23:46:32.093Z,98710.78
2022-11-19T23:49:00.282Z,98704.94
2022-11-19T23:51:31.011Z,98715.16
2022-11-19T23:53:59.028Z,98714.00
2022-11-19T23:56:27.294Z,98704.06
2022-11-19T23:58:54.807Z,98694.97
